OKBK/KWI METAR and TAF weather

Enter ICAO airport designator
Station Type Date Time Source
OKBK METAR 2019/08/23 15:00 UTC NOAA

OKBK 231500Z 16009KT CAVOK 40/15 Q1000 NOSIG


Station Type Date Time Source
OKBK Decoded METAR 2019/08/23 15:00 UTC NOAA

Station name not available
Aug 23, 2019 - 11:00 AM EDT / 2019.08.23 1500 UTC
Wind: from the SSE (160 degrees) at 10 MPH (9 KT):0
Visibility: greater than 7 mile(s):0
Temperature: 104 F (40 C)
Heat index: 104.7 F (40.4 C):1
Dew Point: 59 F (15 C)
Relative Humidity: 23%
Pressure (altimeter): 29.53 in. Hg (1000 hPa)
ob: OKBK 231500Z 16009KT CAVOK 40/15 Q1000 NOSIG
cycle: 15

Station Type Date Time Source
OKBK TAF 2019/08/23 12:48 UTC NOAA

TAF TAF OKBK 231045Z 2312/2418 35010KT 7000 SKC
TEMPO 2312/2318 16012KT

Example: see airport list